Time;durP1;ratioP1;P1;durP2;ratioP2;P2;SDS_P1;SDS_P2;PMS_P1;PMS_P2;Temp;Humidity;BMP_temperature;BMP_pressure;BME280_temperature;BME280_humidity;BME280_pressure;Samples;Min_cycle;Max_cycle;Signal;HPM_P1;HPM_P2
2022/09/02 00:01:36;;;;;;;1.88;1.00;;;;;;;16.13;51.47;99237.66;5046916;28;20037;-81
2022/09/02 00:04:06;;;;;;;1.35;1.20;;;;;;;16.04;51.35;99218.56;5051141;28;20044;-80
2022/09/02 00:06:33;;;;;;;1.48;1.00;;;;;;;16.19;51.72;99234.66;5043611;28;20051;-80
2022/09/02 00:09:00;;;;;;;1.83;1.10;;;;;;;16.02;51.46;99220.72;5071125;28;20025;-80
2022/09/02 00:11:29;;;;;;;0.80;0.80;;;;;;;16.13;51.20;99233.06;5048125;28;20020;-80
2022/09/02 00:13:55;;;;;;;3.75;1.35;;;;;;;16.14;51.51;99233.91;5041910;28;20804;-80
2022/09/02 00:16:23;;;;;;;1.75;0.95;;;;;;;16.15;51.35;99233.59;5048390;28;20124;-80
2022/09/02 00:18:50;;;;;;;3.85;1.20;;;;;;;16.06;51.78;99239.81;5039602;28;20056;-80
2022/09/02 00:21:17;;;;;;;2.55;1.10;;;;;;;15.98;51.50;99235.00;5063590;28;21140;-81
2022/09/02 00:23:44;;;;;;;1.38;1.17;;;;;;;15.99;51.83;99231.25;5046475;28;20043;-80
2022/09/02 00:26:11;;;;;;;1.88;1.13;;;;;;;15.88;52.32;99232.34;5043601;28;20032;-80
2022/09/02 00:28:40;;;;;;;1.45;0.98;;;;;;;15.86;51.95;99234.53;5046609;28;20033;-81
2022/09/02 00:31:06;;;;;;;3.05;1.00;;;;;;;15.94;51.79;99226.69;5059548;28;21424;-81
2022/09/02 00:33:31;;;;;;;3.33;1.65;;;;;;;15.81;51.75;99208.41;5043360;28;20040;-81
2022/09/02 00:36:03;;;;;;;1.17;1.13;;;;;;;15.83;52.39;99225.09;5050357;28;20033;-80
2022/09/02 00:38:33;;;;;;;1.27;1.00;;;;;;;15.84;52.38;99209.72;5042510;28;20037;-81
2022/09/02 00:41:00;;;;;;;1.65;1.02;;;;;;;15.70;52.37;99222.97;5041698;28;20455;-80
2022/09/02 00:43:51;;;;;;;1.95;1.55;;;;;;;15.84;52.67;99218.63;5043607;28;20107;-81
2022/09/02 00:46:20;;;;;;;2.05;1.23;;;;;;;15.77;52.55;99214.63;5042311;28;20529;-80
2022/09/02 00:48:54;;;;;;;2.17;1.40;;;;;;;15.62;52.42;99192.03;5047632;28;20032;-80
2022/09/02 00:51:21;;;;;;;1.35;1.02;;;;;;;15.65;52.52;99204.13;5043576;28;20024;-81
2022/09/02 00:53:47;;;;;;;1.77;1.40;;;;;;;15.75;52.32;99206.78;5028680;28;20074;-81
2022/09/02 00:56:19;;;;;;;2.47;1.30;;;;;;;15.77;52.36;99212.72;5062208;28;20127;-81
2022/09/02 00:58:45;;;;;;;1.63;1.40;;;;;;;15.71;52.95;99211.13;5061131;28;20032;-81
2022/09/02 01:01:10;;;;;;;1.02;0.88;;;;;;;15.70;52.51;99206.81;5063442;28;20025;-80
2022/09/02 01:03:36;;;;;;;1.38;0.60;;;;;;;15.70;52.46;99209.53;5062990;28;20055;-81
2022/09/02 01:06:02;;;;;;;1.52;1.38;;;;;;;15.55;53.01;99202.25;5053532;28;20040;-80
2022/09/02 01:08:32;;;;;;;1.30;0.90;;;;;;;15.56;53.25;99205.75;5047763;28;20572;-80
2022/09/02 01:10:59;;;;;;;3.25;1.38;;;;;;;15.61;52.94;99209.28;5057962;28;20029;-80
2022/09/02 01:13:27;;;;;;;1.52;1.00;;;;;;;15.69;52.82;99205.19;5073053;28;20504;-81
2022/09/02 01:16:22;;;;;;;1.58;1.15;;;;;;;15.44;52.95;99181.81;5051705;28;20044;-80
2022/09/02 01:18:51;;;;;;;1.17;1.17;;;;;;;15.53;53.25;99200.94;5045360;28;20527;-80
2022/09/02 01:21:17;;;;;;;1.02;0.93;;;;;;;15.33;53.58;99192.88;5057351;28;20075;-80
2022/09/02 01:23:44;;;;;;;4.45;1.10;;;;;;;15.38;53.12;99190.97;5064442;28;20040;-80
2022/09/02 01:26:10;;;;;;;3.53;1.15;;;;;;;15.26;53.51;99185.06;5050082;28;20066;-80
2022/09/02 01:28:36;;;;;;;9.35;2.42;;;;;;;15.32;53.69;99180.47;5042746;28;20031;-80
2022/09/02 01:31:01;;;;;;;2.30;1.23;;;;;;;15.31;53.56;99181.56;5061287;28;20028;-81
2022/09/02 01:33:28;;;;;;;1.60;1.23;;;;;;;15.44;53.38;99184.53;5040859;28;20508;-80
2022/09/02 01:35:54;;;;;;;1.80;1.08;;;;;;;15.43;53.68;99185.63;5045338;28;20032;-80
2022/09/02 01:38:20;;;;;;;1.48;1.20;;;;;;;15.39;53.26;99181.81;5059559;28;20516;-80
2022/09/02 01:40:46;;;;;;;1.40;1.20;;;;;;;15.31;53.42;99182.34;5062882;28;20044;-80
2022/09/02 01:43:16;;;;;;;2.33;1.30;;;;;;;15.32;53.51;99188.53;5056934;28;20913;-80
2022/09/02 01:45:43;;;;;;;1.75;1.10;;;;;;;15.28;53.70;99188.28;5054983;28;20032;-80
2022/09/02 01:48:09;;;;;;;1.90;1.00;;;;;;;15.32;53.72;99183.97;5053741;28;20488;-81
2022/09/02 01:50:42;;;;;;;3.05;1.83;;;;;;;15.23;53.59;99174.03;5040194;28;20040;-80
2022/09/02 01:53:08;;;;;;;3.53;1.02;;;;;;;15.21;53.73;99168.94;5054012;28;20029;-80
2022/09/02 01:55:35;;;;;;;2.25;1.30;;;;;;;15.16;54.00;99168.13;5058281;28;20086;-80
2022/09/02 01:58:01;;;;;;;2.28;1.27;;;;;;;15.22;54.13;99177.81;5041438;28;20090;-80
2022/09/02 02:00:27;;;;;;;3.33;1.35;;;;;;;15.23;54.12;99174.03;5060970;28;20036;-81
2022/09/02 02:02:54;;;;;;;2.53;1.08;;;;;;;15.19;54.20;99178.34;5061813;28;20028;-80
2022/09/02 02:05:20;;;;;;;2.55;1.52;;;;;;;14.96;54.16;99156.28;5042783;28;20048;-81
2022/09/02 02:07:46;;;;;;;1.80;1.10;;;;;;;15.06;54.37;99168.13;5056194;28;22130;-80
2022/09/02 02:10:14;;;;;;;2.53;1.50;;;;;;;15.09;54.51;99175.66;5064294;28;20036;-80
2022/09/02 02:12:40;;;;;;;1.70;1.02;;;;;;;15.14;54.10;99170.25;5057452;28;20028;-80
2022/09/02 02:15:08;;;;;;;1.20;1.10;;;;;;;15.01;54.59;99164.38;5058903;28;20480;-79
2022/09/02 02:17:34;;;;;;;1.92;1.20;;;;;;;14.92;54.64;99159.78;5056681;28;20041;-80
2022/09/02 02:19:59;;;;;;;4.18;1.58;;;;;;;14.95;54.68;99172.69;5046598;28;20037;-80
2022/09/02 02:22:26;;;;;;;1.85;0.90;;;;;;;14.90;54.67;99173.50;5058417;28;20346;-80
2022/09/02 02:24:52;;;;;;;4.38;1.50;;;;;;;14.85;54.68;99167.34;5059159;28;20469;-80
2022/09/02 02:27:18;;;;;;;1.83;1.20;;;;;;;14.83;54.62;99154.16;5053758;28;20043;-80
2022/09/02 02:29:43;;;;;;;0.95;0.93;;;;;;;15.06;54.68;99178.88;5039855;28;20033;-80
2022/09/02 02:32:12;;;;;;;2.33;1.33;;;;;;;13.78;57.88;99176.09;5059288;28;20032;-80
2022/09/02 02:34:38;;;;;;;3.05;1.33;;;;;;;14.61;55.82;99177.75;5056043;28;20037;-80
2022/09/02 02:37:05;;;;;;;2.33;1.75;;;;;;;14.77;55.05;99162.47;5056737;28;20085;-80
2022/09/02 02:39:31;;;;;;;1.42;1.30;;;;;;;14.88;55.25;99167.59;5060153;28;20610;-80
2022/09/02 02:41:57;;;;;;;1.20;0.90;;;;;;;14.90;54.93;99162.75;5055317;28;20075;-79
2022/09/02 02:44:23;;;;;;;2.20;1.33;;;;;;;14.78;55.06;99151.47;5041026;28;20070;-79
2022/09/02 02:46:49;;;;;;;1.38;1.23;;;;;;;14.81;54.88;99150.91;5032884;28;20138;-80
2022/09/02 02:49:14;;;;;;;2.40;1.60;;;;;;;14.72;55.07;99135.63;5051543;28;20032;-80
2022/09/02 02:51:40;;;;;;;1.92;1.40;;;;;;;14.86;55.09;99159.00;5057218;28;20032;-80
2022/09/02 02:54:05;;;;;;;1.48;1.08;;;;;;;14.80;54.93;99154.69;5058345;28;20037;-80
2022/09/02 02:56:31;;;;;;;2.92;1.50;;;;;;;14.72;55.45;99162.47;5059813;28;20032;-80
2022/09/02 02:59:00;;;;;;;1.30;1.20;;;;;;;14.86;54.97;99156.31;5054298;28;20191;-80
2022/09/02 03:01:25;;;;;;;1.60;1.50;;;;;;;14.78;55.19;99161.41;5059087;28;20028;-80
2022/09/02 03:03:51;;;;;;;2.10;1.60;;;;;;;14.79;55.37;99155.75;5054561;28;20086;-80
2022/09/02 03:06:17;;;;;;;3.05;1.52;;;;;;;14.78;55.52;99156.84;5039703;28;20045;-80
2022/09/02 03:08:42;;;;;;;1.65;1.35;;;;;;;14.70;55.44;99156.56;5053459;28;21516;-79
2022/09/02 03:11:08;;;;;;;2.40;1.33;;;;;;;14.72;55.55;99157.91;5055894;28;20051;-79
2022/09/02 03:13:34;;;;;;;3.67;1.70;;;;;;;13.75;57.82;99140.97;5051174;28;20029;-79
2022/09/02 03:16:00;;;;;;;2.45;1.35;;;;;;;14.50;56.00;99148.47;5040545;28;20032;-79
2022/09/02 03:18:26;;;;;;;5.13;2.03;;;;;;;14.62;55.89;99149.84;5053705;28;20037;-80
2022/09/02 03:20:51;;;;;;;3.38;1.20;;;;;;;14.67;55.50;99141.78;5039475;28;20039;-79
2022/09/02 03:23:17;;;;;;;1.58;1.42;;;;;;;14.69;55.29;99147.69;5050082;28;20036;-79
2022/09/02 03:25:44;;;;;;;5.55;1.80;;;;;;;14.55;55.65;99133.16;5041338;28;20036;-79
2022/09/02 03:28:11;;;;;;;1.33;1.23;;;;;;;14.58;55.38;99158.69;5057742;28;20033;-79
2022/09/02 03:30:38;;;;;;;2.30;1.23;;;;;;;14.61;55.69;99161.66;5054911;28;20505;-79
2022/09/02 03:33:04;;;;;;;3.88;1.85;;;;;;;13.11;59.26;99149.16;5059052;28;20029;-79
2022/09/02 03:35:31;;;;;;;1.30;1.20;;;;;;;12.60;61.29;99169.31;5051714;28;20033;-79
2022/09/02 03:37:58;;;;;;;1.45;1.27;;;;;;;13.52;58.90;99159.06;5056931;28;20040;-80
2022/09/02 03:40:26;;;;;;;2.03;1.42;;;;;;;14.20;56.55;99144.63;5058029;28;20041;-79
2022/09/02 03:42:53;;;;;;;1.85;1.45;;;;;;;14.46;55.97;99153.56;5057614;28;20036;-79
2022/09/02 03:45:19;;;;;;;4.80;1.80;;;;;;;14.40;55.80;99127.78;5056358;28;20039;-79
2022/09/02 03:47:53;;;;;;;3.03;1.30;;;;;;;14.48;56.13;99142.56;5054039;28;20040;-80
2022/09/02 03:50:36;;;;;;;1.48;1.33;;;;;;;14.43;56.29;99142.56;5051422;28;20412;-79
2022/09/02 03:53:02;;;;;;;2.10;1.30;;;;;;;14.52;56.03;99143.66;5059332;28;20035;-79
2022/09/02 03:55:29;;;;;;;3.58;1.35;;;;;;;14.61;55.45;99145.53;5062581;28;20032;-79
2022/09/02 03:57:54;;;;;;;2.78;1.40;;;;;;;14.53;56.15;99132.63;5061559;28;20087;-80
2022/09/02 04:00:28;;;;;;;2.63;1.77;;;;;;;14.65;55.89;99148.50;5063729;28;20032;-80
2022/09/02 04:02:54;;;;;;;1.85;1.55;;;;;;;14.56;56.07;99140.16;5068197;28;20021;-80
2022/09/02 04:05:21;;;;;;;1.27;1.17;;;;;;;14.54;56.07;99147.69;5059571;28;20120;-80
2022/09/02 04:07:50;;;;;;;2.97;1.90;;;;;;;14.46;56.45;99147.41;5065372;28;20030;-80
2022/09/02 04:10:15;;;;;;;1.08;1.08;;;;;;;14.28;56.43;99129.88;5058928;28;20071;-80
2022/09/02 04:12:40;;;;;;;1.70;1.52;;;;;;;14.30;56.65;99140.38;5051585;28;20124;-81
2022/09/02 04:15:08;;;;;;;1.60;1.50;;;;;;;13.81;57.24;99139.91;5055281;28;20037;-80
2022/09/02 04:17:38;;;;;;;3.17;1.50;;;;;;;13.85;57.52;99114.97;5060711;28;20068;-80
2022/09/02 04:20:07;;;;;;;4.40;1.70;;;;;;;14.21;56.79;99127.44;5060927;28;20041;-80
2022/09/02 04:22:32;;;;;;;2.90;1.42;;;;;;;14.40;56.72;99149.25;5063171;28;20130;-80
2022/09/02 04:24:58;;;;;;;1.85;1.75;;;;;;;14.39;56.66;99147.66;5058057;28;20036;-81
2022/09/02 04:27:23;;;;;;;3.40;1.70;;;;;;;14.26;56.67;99134.72;5062022;28;20040;-80
2022/09/02 04:29:49;;;;;;;1.75;1.30;;;;;;;14.19;56.39;99140.34;5047719;28;20037;-80
2022/09/02 04:32:14;;;;;;;3.60;1.63;;;;;;;14.08;57.83;99148.59;5042469;28;20029;-80
2022/09/02 04:34:40;;;;;;;2.05;1.55;;;;;;;14.31;57.11;99133.94;5057790;28;20024;-80
2022/09/02 04:37:05;;;;;;;2.83;1.45;;;;;;;14.25;56.92;99139.28;5043707;28;20040;-80
2022/09/02 04:39:31;;;;;;;4.47;1.80;;;;;;;14.27;57.02;99136.31;5070953;28;20032;-80
2022/09/02 04:41:56;;;;;;;3.47;1.60;;;;;;;14.24;57.00;99155.66;5037860;28;20031;-80
2022/09/02 04:44:24;;;;;;;1.85;1.73;;;;;;;13.04;60.38;99129.78;5057184;28;20056;-80
2022/09/02 04:46:50;;;;;;;5.32;1.50;;;;;;;13.73;59.20;99153.81;5064048;28;20025;-80
2022/09/02 04:49:15;;;;;;;2.80;1.73;;;;;;;13.15;61.43;99160.97;5063551;28;20036;-80
2022/09/02 04:51:41;;;;;;;2.03;1.50;;;;;;;13.30;59.88;99136.16;5063124;28;20033;-80
2022/09/02 04:54:06;;;;;;;3.25;1.65;;;;;;;14.02;58.28;99144.31;5067601;28;20415;-80
2022/09/02 04:56:32;;;;;;;1.85;1.50;;;;;;;13.54;59.04;99150.78;5043912;28;20476;-80
2022/09/02 04:58:58;;;;;;;2.75;1.65;;;;;;;13.91;58.21;99126.53;5059276;28;20412;-80
2022/09/02 05:01:27;;;;;;;5.28;1.58;;;;;;;14.26;57.25;99145.44;5057031;28;20052;-80
2022/09/02 05:03:52;;;;;;;2.70;1.75;;;;;;;14.14;57.45;99128.75;5056163;28;20062;-80
2022/09/02 05:06:25;;;;;;;3.85;2.13;;;;;;;13.93;58.54;99148.56;5056998;28;20154;-80
2022/09/02 05:08:53;;;;;;;1.75;1.63;;;;;;;13.86;58.92;99145.31;5055683;28;20424;-80
2022/09/02 05:11:22;;;;;;;1.50;1.40;;;;;;;14.15;57.35;99119.66;5061695;28;20035;-80
2022/09/02 05:13:52;;;;;;;1.83;1.73;;;;;;;14.31;57.38;99133.94;5067553;28;20028;-80
2022/09/02 05:16:21;;;;;;;4.82;1.67;;;;;;;14.41;57.29;99124.03;5054161;28;20400;-80
2022/09/02 05:18:50;;;;;;;1.45;1.35;;;;;;;14.46;57.25;99150.88;5069894;28;20027;-80
2022/09/02 05:21:16;;;;;;;1.40;1.30;;;;;;;14.50;58.09;99138.56;5062227;28;20036;-80
2022/09/02 05:23:42;;;;;;;1.95;1.55;;;;;;;14.53;57.45;99147.94;5061684;28;20070;-80
2022/09/02 05:26:09;;;;;;;1.30;1.20;;;;;;;14.62;57.34;99146.34;5055729;28;20024;-80
2022/09/02 05:28:35;;;;;;;2.15;1.52;;;;;;;14.49;57.33;99125.38;5059424;28;20025;-80
2022/09/02 05:31:04;;;;;;;3.13;1.40;;;;;;;13.87;60.36;99131.63;5064577;28;20020;-80
2022/09/02 05:33:31;;;;;;;4.57;2.17;;;;;;;13.07;63.00;99148.06;5058766;28;20131;-80
2022/09/02 05:35:56;;;;;;;4.15;2.30;;;;;;;13.61;61.96;99139.84;5062731;28;20020;-80
2022/09/02 05:38:21;;;;;;;2.65;1.90;;;;;;;13.21;62.27;99151.13;5063405;28;20047;-80
2022/09/02 05:40:47;;;;;;;3.05;2.00;;;;;;;12.61;66.30;99149.53;5059143;28;20040;-80
2022/09/02 05:43:12;;;;;;;3.17;2.50;;;;;;;12.11;68.04;99134.81;5065591;28;20119;-80
2022/09/02 05:45:38;;;;;;;4.43;2.28;;;;;;;12.09;68.57;99155.66;5057495;28;20036;-80
2022/09/02 05:49:04;;;;;;;3.38;2.25;;;;;;;11.87;69.31;99124.41;5059195;28;20020;-80
2022/09/02 05:50:48;;;;;;;4.40;2.03;;;;;;;12.03;67.85;99131.53;5059457;28;20028;-80
2022/09/02 05:53:14;;;;;;;6.40;2.53;;;;;;;12.49;68.73;99151.53;5026653;28;20365;-80
2022/09/02 05:55:39;;;;;;;3.33;1.95;;;;;;;12.13;69.16;99128.16;5062467;28;20028;-79
2022/09/02 05:58:05;;;;;;;2.63;2.42;;;;;;;12.33;68.60;99114.19;5030420;28;20839;-80
2022/09/02 06:00:30;;;;;;;4.65;2.42;;;;;;;12.46;68.49;99146.72;5062816;28;20044;-80
2022/09/02 06:02:56;;;;;;;6.55;2.30;;;;;;;12.65;67.65;99144.47;5046703;28;20480;-80
2022/09/02 06:05:21;;;;;;;3.63;1.95;;;;;;;12.49;67.13;99123.97;5062093;28;20412;-80
2022/09/02 06:07:47;;;;;;;4.97;2.20;;;;;;;13.61;62.89;99121.06;5028119;28;20040;-80
2022/09/02 06:10:13;;;;;;;5.60;2.30;;;;;;;13.28;64.24;99139.09;5051363;28;20032;-80
2022/09/02 06:12:38;;;;;;;2.80;2.58;;;;;;;13.00;65.46;99128.69;5058925;28;20396;-78
2022/09/02 06:15:04;;;;;;;3.17;1.80;;;;;;;13.31;64.33;99119.81;5043973;28;20048;-78
2022/09/02 06:17:29;;;;;;;4.40;2.58;;;;;;;12.56;68.61;99144.13;5040973;28;20440;-78
2022/09/02 06:19:55;;;;;;;11.30;2.38;;;;;;;12.36;68.84;99140.44;5042093;28;20034;-78
2022/09/02 06:22:20;;;;;;;2.28;2.08;;;;;;;12.52;67.65;99132.31;5053854;28;20037;-78
2022/09/02 06:24:46;;;;;;;10.15;2.83;;;;;;;12.65;68.42;99136.44;5065341;28;20067;-80
2022/09/02 06:27:11;;;;;;;9.73;2.38;;;;;;;13.91;63.39;99130.00;5044347;28;20060;-78
2022/09/02 06:29:36;;;;;;;6.65;2.63;;;;;;;14.46;62.31;99132.06;5039800;28;20408;-79
2022/09/02 06:32:02;;;;;;;3.65;2.20;;;;;;;14.61;61.42;99137.47;5053439;28;20033;-78
2022/09/02 06:34:28;;;;;;;5.22;2.65;;;;;;;14.69;61.17;99118.16;5061134;28;20487;-78
2022/09/02 06:36:54;;;;;;;4.63;2.85;;;;;;;15.14;59.93;99132.63;5063838;28;20032;-78
2022/09/02 06:39:22;;;;;;;6.25;2.58;;;;;;;14.97;60.00;99095.28;5057837;28;20059;-80
2022/09/02 06:41:48;;;;;;;6.68;2.55;;;;;;;14.54;62.60;99134.25;5055399;28;20032;-80
2022/09/02 06:44:15;;;;;;;7.38;2.58;;;;;;;14.66;61.30;99121.34;5061122;28;20055;-80
2022/09/02 06:46:45;;;;;;;5.15;2.22;;;;;;;14.93;60.37;99096.91;5055158;28;20040;-80
2022/09/02 06:49:11;;;;;;;6.00;2.65;;;;;;;15.00;61.00;99137.75;5058861;28;20081;-79
2022/09/02 06:51:42;;;;;;;4.55;2.55;;;;;;;15.48;60.15;99136.38;5070177;28;20499;-80
2022/09/02 06:54:10;;;;;;;3.42;2.10;;;;;;;15.53;59.82;99131.00;5036540;28;20079;-81
2022/09/02 06:56:36;;;;;;;3.85;2.47;;;;;;;15.38;60.00;99123.72;5049319;28;20037;-80
2022/09/02 06:59:03;;;;;;;5.47;2.85;;;;;;;15.18;61.34;99118.38;5054413;28;20035;-80
2022/09/02 07:01:31;;;;;;;3.08;2.30;;;;;;;15.36;61.24;99130.44;5055445;28;20416;-80
2022/09/02 07:06:48;;;;;;;2.50;2.30;;;;;;;14.76;64.00;99139.38;5063278;28;20424;-80
2022/09/02 07:09:16;;;;;;;12.10;3.25;;;;;;;14.19;67.41;99115.34;5068873;28;20055;-80
2022/09/02 07:11:46;;;;;;;12.13;3.58;;;;;;;14.02;68.06;99120.16;5053866;28;20036;-80
2022/09/02 07:14:12;;;;;;;7.07;2.70;;;;;;;14.59;66.28;99131.56;5066986;28;20085;-80
2022/09/02 07:16:43;;;;;;;8.77;3.05;;;;;;;14.65;65.84;99114.38;5046318;28;20036;-80
2022/09/02 07:19:09;;;;;;;7.80;3.40;;;;;;;14.51;67.34;99136.66;5069493;28;20066;-80
2022/09/02 07:21:35;;;;;;;13.52;4.03;;;;;;;14.92;63.73;99133.72;5058157;28;20387;-80
2022/09/02 07:24:01;;;;;;;2.97;2.13;;;;;;;15.07;62.42;99121.38;5068409;28;20029;-80
2022/09/02 07:26:27;;;;;;;6.22;2.40;;;;;;;15.65;60.74;99142.25;5047636;28;20137;-80
2022/09/02 07:28:53;;;;;;;10.15;2.75;;;;;;;15.11;62.86;99125.13;5071402;28;20869;-80
2022/09/02 07:31:19;;;;;;;7.45;2.92;;;;;;;14.93;64.38;99137.22;5086259;28;20035;-80
2022/09/02 07:33:45;;;;;;;5.03;2.13;;;;;;;15.21;61.81;99117.03;5075181;28;20036;-80
2022/09/02 07:36:11;;;;;;;10.80;3.00;;;;;;;15.36;63.83;99136.63;5080864;28;20093;-80
2022/09/02 07:38:39;;;;;;;5.78;2.85;;;;;;;15.51;62.84;99127.75;5069753;28;20082;-80
2022/09/02 07:41:06;;;;;;;3.58;2.90;;;;;;;15.08;65.29;99129.16;5071704;28;20028;-80
2022/09/02 07:43:32;;;;;;;7.93;3.22;;;;;;;14.73;66.70;99119.22;5063768;28;20063;-79
2022/09/02 07:45:59;;;;;;;4.70;3.10;;;;;;;14.37;67.67;99114.91;5068132;28;20032;-80
2022/09/02 07:48:27;;;;;;;6.35;2.83;;;;;;;15.04;63.83;99109.25;5083105;28;20103;-80
2022/09/02 07:50:53;;;;;;;6.85;3.28;;;;;;;15.13;65.33;99134.53;5073835;28;20569;-80
2022/09/02 07:53:19;;;;;;;4.15;2.55;;;;;;;15.64;64.61;99129.84;5073830;28;20081;-80
2022/09/02 07:55:46;;;;;;;4.78;2.55;;;;;;;15.32;63.83;99113.25;5080548;28;20037;-80
2022/09/02 07:58:12;;;;;;;4.72;2.75;;;;;;;15.59;63.43;99129.91;5077261;28;20106;-80
2022/09/02 08:00:38;;;;;;;5.97;2.13;;;;;;;15.92;61.21;99115.78;5051048;28;20025;-80
2022/09/02 08:03:05;;;;;;;7.47;3.30;;;;;;;15.99;62.80;99131.63;5065419;28;20032;-80
2022/09/02 08:05:32;;;;;;;5.13;2.45;;;;;;;15.64;63.93;99133.34;5080151;28;20036;-80
2022/09/02 08:07:59;;;;;;;3.65;3.00;;;;;;;15.37;65.11;99132.88;5071500;28;20033;-80
2022/09/02 08:10:28;;;;;;;2.58;2.15;;;;;;;15.84;62.57;99113.63;5076820;28;20463;-80
2022/09/02 08:12:55;;;;;;;5.40;2.42;;;;;;;16.21;62.68;99138.22;5074709;28;20540;-80
2022/09/02 08:15:21;;;;;;;5.13;3.10;;;;;;;15.81;64.38;99129.53;5069533;28;20119;-80
2022/09/02 08:17:49;;;;;;;6.32;3.20;;;;;;;15.68;64.87;99136.31;5049092;28;20029;-80
2022/09/02 08:20:16;;;;;;;6.55;2.63;;;;;;;15.66;65.12;99109.66;5070603;28;20028;-80
2022/09/02 08:22:41;;;;;;;6.15;3.35;;;;;;;15.69;64.93;99101.06;5078891;28;20504;-80
2022/09/02 08:25:08;;;;;;;7.00;2.95;;;;;;;16.02;64.54;99131.06;5080102;28;20054;-80
2022/09/02 08:27:34;;;;;;;3.80;2.60;;;;;;;16.59;61.10;99117.00;5072895;28;20067;-80
2022/09/02 08:30:00;;;;;;;5.80;2.58;;;;;;;16.50;62.72;99114.09;5070778;28;20044;-80
2022/09/02 08:32:27;;;;;;;3.53;2.58;;;;;;;16.62;61.63;99122.63;5055160;28;20359;-80
2022/09/02 08:34:52;;;;;;;5.57;2.72;;;;;;;16.61;63.72;99123.75;5052418;28;20081;-80
2022/09/02 08:37:18;;;;;;;6.70;2.80;;;;;;;16.55;62.92;99102.50;5062928;28;20024;-80
2022/09/02 08:39:44;;;;;;;3.80;2.75;;;;;;;16.35;63.55;99116.88;5061141;28;20048;-80
2022/09/02 08:42:29;;;;;;;6.03;3.00;;;;;;;16.46;63.93;99094.97;5069311;28;20054;-80
2022/09/02 08:45:03;;;;;;;4.95;2.90;;;;;;;16.53;63.71;99116.25;5064396;28;20036;-80
2022/09/02 08:47:32;;;;;;;7.05;2.78;;;;;;;16.71;63.20;99112.09;5059820;28;20049;-80
2022/09/02 08:50:09;;;;;;;7.28;2.63;;;;;;;16.86;62.61;99109.25;5073781;28;20067;-80
2022/09/02 08:52:41;;;;;;;3.80;2.55;;;;;;;17.25;61.34;99112.69;5077410;28;20048;-80
2022/09/02 08:55:11;;;;;;;9.43;2.60;;;;;;;16.97;61.82;99108.09;5064723;28;20045;-80
2022/09/02 08:57:37;;;;;;;4.05;2.58;;;;;;;16.94;62.18;99093.28;5077801;28;20041;-80
2022/09/02 09:00:03;;;;;;;5.68;2.63;;;;;;;16.88;61.98;99093.59;5053685;28;20043;-80
2022/09/02 09:03:15;;;;;;;3.95;2.83;;;;;;;17.06;61.38;99100.97;5068327;28;20027;-80
2022/09/02 09:05:54;;;;;;;11.27;3.47;;;;;;;17.00;61.69;99092.13;5066572;28;20104;-79
2022/09/02 09:08:33;;;;;;;4.13;2.65;;;;;;;16.94;61.64;99065.50;5068595;28;20028;-80
2022/09/02 09:11:11;;;;;;;2.33;2.03;;;;;;;17.17;61.21;99089.00;5070258;28;20091;-80
2022/09/02 09:13:48;;;;;;;4.03;1.90;;;;;;;17.49;60.13;99089.22;5068845;28;20024;-80
2022/09/02 09:16:18;;;;;;;4.22;2.33;;;;;;;17.47;60.35;99080.59;5081239;28;20531;-80
2022/09/02 09:18:52;;;;;;;3.08;2.15;;;;;;;17.54;60.12;99083.78;5078707;28;20093;-79
2022/09/02 09:21:17;;;;;;;5.10;2.25;;;;;;;17.65;59.89;99063.66;5078222;28;20495;-80
2022/09/02 09:23:45;;;;;;;8.68;2.60;;;;;;;17.60;57.08;99057.53;5057244;28;20036;-80
2022/09/02 09:26:15;;;;;;;3.67;2.53;;;;;;;17.76;58.04;99078.66;5077734;28;20114;-80
2022/09/02 09:28:44;;;;;;;7.57;2.38;;;;;;;17.95;56.30;99059.78;5075021;28;20251;-80
2022/09/02 09:31:16;;;;;;;2.63;2.00;;;;;;;18.15;55.80;99077.59;5077735;28;21949;-80
2022/09/02 09:34:05;;;;;;;2.75;2.00;;;;;;;18.08;55.65;99047.44;5066814;28;20039;-80
2022/09/02 09:36:39;;;;;;;8.07;2.45;;;;;;;18.40;56.03;99074.50;5081264;28;20063;-80
2022/09/02 09:39:23;;;;;;;6.10;2.10;;;;;;;18.57;56.27;99051.28;5079829;28;20039;-80
2022/09/02 09:42:10;;;;;;;5.53;1.98;;;;;;;18.63;55.01;99046.63;5070740;28;20029;-80
2022/09/02 09:44:43;;;;;;;6.50;3.05;;;;;;;18.78;55.38;99051.78;5064175;28;20033;-80
2022/09/02 09:47:16;;;;;;;3.22;2.10;;;;;;;18.59;54.12;99037.47;5068817;28;20107;-80
2022/09/02 09:49:41;;;;;;;3.85;2.05;;;;;;;18.84;54.01;99037.06;5068349;28;20067;-80
2022/09/02 09:52:07;;;;;;;7.45;2.40;;;;;;;18.83;54.66;99038.13;5053590;28;20056;-80
2022/09/02 09:54:32;;;;;;;4.38;2.30;;;;;;;19.12;53.74;99052.22;5063932;28;20036;-80
2022/09/02 09:57:14;;;;;;;7.13;2.33;;;;;;;18.94;53.27;99028.75;5079320;28;20150;-80
2022/09/02 09:59:45;;;;;;;6.53;2.30;;;;;;;19.08;53.97;99020.66;5065135;28;20120;-80
2022/09/02 10:02:21;;;;;;;4.07;1.85;;;;;;;19.23;53.73;99042.81;5053266;28;20032;-80
2022/09/02 10:04:47;;;;;;;1.90;1.80;;;;;;;19.27;53.29;99035.69;5073244;28;20024;-80
2022/09/02 10:07:13;;;;;;;4.75;2.00;;;;;;;19.25;53.03;99040.63;5070088;28;20089;-80
2022/09/02 10:09:39;;;;;;;6.38;2.22;;;;;;;19.39;52.55;99035.25;5055606;28;20032;-80
2022/09/02 10:12:11;;;;;;;4.20;2.08;;;;;;;19.37;53.65;99035.53;5066265;28;20103;-80
2022/09/02 10:14:42;;;;;;;4.95;2.25;;;;;;;19.18;51.96;99023.97;5071862;28;20035;-80
2022/09/02 10:17:17;;;;;;;2.42;2.05;;;;;;;19.50;52.53;99035.84;5068636;28;20025;-80
2022/09/02 10:20:21;;;;;;;6.10;2.70;;;;;;;19.51;52.80;99032.00;5088587;28;20704;-80
2022/09/02 10:22:59;;;;;;;4.95;2.40;;;;;;;19.51;52.28;99032.81;5062218;28;20041;-80
2022/09/02 10:26:04;;;;;;;1.88;1.70;;;;;;;19.46;52.98;99018.59;5058516;28;20029;-80
2022/09/02 10:28:32;;;;;;;6.85;2.72;;;;;;;19.50;52.14;99025.81;5057338;28;20016;-80
2022/09/02 10:31:23;;;;;;;3.55;1.90;;;;;;;19.60;53.01;99024.78;5066452;28;20690;-80
2022/09/02 10:33:56;;;;;;;4.80;2.20;;;;;;;19.53;52.13;99021.72;5072191;28;20032;-80
2022/09/02 10:36:52;;;;;;;4.38;2.08;;;;;;;19.44;51.57;99016.16;5075718;28;20368;-80
2022/09/02 10:39:24;;;;;;;3.87;1.87;;;;;;;19.43;50.72;99007.25;5072785;28;20055;-80
2022/09/02 10:41:54;;;;;;;2.60;2.10;;;;;;;19.63;51.15;99010.66;5069969;28;20040;-80
2022/09/02 10:44:31;;;;;;;2.90;1.88;;;;;;;19.74;52.15;98993.06;5066258;28;20024;-80
2022/09/02 10:47:17;;;;;;;1.95;1.75;;;;;;;19.97;51.55;98990.09;5046637;28;20028;-80
2022/09/02 10:49:54;;;;;;;2.80;1.92;;;;;;;20.27;50.19;99004.09;5065795;28;20028;-80
2022/09/02 10:52:25;;;;;;;5.05;2.47;;;;;;;20.30;50.86;99011.59;5068231;28;20047;-80
2022/09/02 10:55:17;;;;;;;3.60;2.10;;;;;;;20.16;49.97;99008.88;5061168;28;20043;-80
2022/09/02 10:57:53;;;;;;;3.65;1.70;;;;;;;20.11;49.51;98985.44;5076644;28;20500;-81
2022/09/02 11:00:19;;;;;;;7.95;2.00;;;;;;;19.91;49.77;99004.06;5079111;28;20388;-80
2022/09/02 11:03:06;;;;;;;2.58;1.80;;;;;;;20.01;49.82;98998.41;5064934;28;20039;-81
2022/09/02 11:05:46;;;;;;;2.08;1.85;;;;;;;20.13;49.26;98985.94;5070321;28;20036;-81
2022/09/02 11:08:37;;;;;;;3.58;2.05;;;;;;;20.22;48.64;98983.31;5068241;28;20032;-81
2022/09/02 11:11:26;;;;;;;4.55;1.90;;;;;;;20.23;48.79;98984.91;5067763;28;20033;-80
2022/09/02 11:13:51;;;;;;;5.10;1.80;;;;;;;20.33;48.64;98992.81;5068558;28;20017;-81
2022/09/02 11:16:33;;;;;;;1.52;1.40;;;;;;;20.25;48.12;98979.97;5071164;28;20464;-81
2022/09/02 11:19:01;;;;;;;6.32;2.13;;;;;;;20.09;48.11;98986.84;5067290;28;20103;-80
2022/09/02 11:21:48;;;;;;;3.53;1.80;;;;;;;20.18;47.95;98987.72;5068493;28;20103;-80
2022/09/02 11:24:25;;;;;;;7.38;3.10;;;;;;;20.19;47.80;98965.72;5075130;28;20028;-81
2022/09/02 11:27:00;;;;;;;2.95;1.92;;;;;;;20.51;47.46;98980.16;5064385;28;20146;-81
2022/09/02 11:29:52;;;;;;;3.22;2.47;;;;;;;20.77;47.56;98973.75;5070256;28;20032;-81
2022/09/02 11:32:38;;;;;;;6.07;1.90;;;;;;;21.06;46.64;98964.34;5060932;28;20035;-81
2022/09/02 11:35:13;;;;;;;5.40;1.92;;;;;;;21.16;45.23;98945.88;5075619;28;20103;-81
2022/09/02 11:37:45;;;;;;;8.73;2.05;;;;;;;21.67;45.35;98969.59;5065752;28;20028;-81
2022/09/02 11:40:19;;;;;;;2.85;2.28;;;;;;;22.14;45.07;98968.72;5065968;28;20094;-80
2022/09/02 11:43:23;;;;;;;5.05;1.88;;;;;;;22.35;43.24;98968.84;5059473;28;20029;-80
2022/09/02 11:45:54;;;;;;;2.90;1.88;;;;;;;22.94;44.65;98962.47;5036435;28;20076;-80
2022/09/02 11:48:51;;;;;;;6.93;2.70;;;;;;;23.08;43.47;98965.00;5056489;28;20377;-80